Time;durP1;ratioP1;P1;durP2;ratioP2;P2;SDS_P1;SDS_P2;PMS_P1;PMS_P2;Temp;Humidity;BMP_temperature;BMP_pressure;BME280_temperature;BME280_humidity;BME280_pressure;Samples;Min_cycle;Max_cycle;Signal;HPM_P1;HPM_P2
2023/01/15 13:00:39;;;;;;;10.50;1.85;;;15.10;99.90;;;;;;5070074;28;20425;-66
2023/01/15 13:03:29;;;;;;;7.65;1.98;;;15.00;99.90;;;;;;5069746;28;20040;-67
2023/01/15 13:06:01;;;;;;;5.25;1.67;;;15.00;99.90;;;;;;5069706;28;20257;-67
2023/01/15 13:08:52;;;;;;;6.82;1.70;;;15.10;99.90;;;;;;5070069;28;20127;-67
2023/01/15 13:11:18;;;;;;;6.53;2.03;;;15.10;99.90;;;;;;5059757;28;20047;-64
2023/01/15 13:13:56;;;;;;;4.72;1.60;;;15.20;99.90;;;;;;5070364;28;20041;-65
2023/01/15 13:16:44;;;;;;;7.15;1.92;;;15.20;99.90;;;;;;5069106;28;20029;-64
2023/01/15 13:19:33;;;;;;;5.40;1.63;;;15.20;99.90;;;;;;5069123;28;20416;-65
2023/01/15 13:22:05;;;;;;;6.78;1.88;;;15.30;99.90;;;;;;5066437;28;20343;-66
2023/01/15 13:24:52;;;;;;;6.30;1.50;;;15.30;99.90;;;;;;5070063;28;20050;-68
2023/01/15 13:27:49;;;;;;;7.30;1.70;;;15.30;99.90;;;;;;5069919;28;20029;-71
2023/01/15 13:30:40;;;;;;;7.55;2.67;;;15.30;99.90;;;;;;5069759;28;20040;-69
2023/01/15 13:33:27;;;;;;;8.90;1.83;;;15.40;99.90;;;;;;5069736;28;20031;-70
2023/01/15 13:36:16;;;;;;;5.60;1.58;;;15.40;99.90;;;;;;5071141;28;20297;-69
2023/01/15 13:38:47;;;;;;;7.78;2.00;;;15.50;99.90;;;;;;5071988;28;20133;-69
2023/01/15 13:44:25;;;;;;;5.53;1.55;;;15.60;99.90;;;;;;5068148;28;20033;-69
2023/01/15 13:47:12;;;;;;;4.97;1.52;;;15.60;99.90;;;;;;5071050;28;20025;-67
2023/01/15 13:49:48;;;;;;;4.85;1.48;;;15.60;99.90;;;;;;5070923;28;20379;-70
2023/01/15 13:52:25;;;;;;;6.88;1.80;;;15.70;99.90;;;;;;5071529;28;20116;-69
2023/01/15 13:54:52;;;;;;;6.38;1.35;;;15.70;99.90;;;;;;5061418;28;20140;-68
2023/01/15 13:57:24;;;;;;;6.25;1.52;;;15.70;99.90;;;;;;5072668;28;20439;-70
2023/01/15 13:59:50;;;;;;;7.65;1.70;;;15.80;99.90;;;;;;5071424;28;20071;-69
2023/01/15 14:02:29;;;;;;;5.45;1.58;;;15.80;99.90;;;;;;5064922;28;20500;-68
2023/01/15 14:05:12;;;;;;;4.43;1.55;;;15.80;99.90;;;;;;5067397;28;20108;-68
2023/01/15 14:07:38;;;;;;;5.63;1.70;;;15.80;99.90;;;;;;5061899;28;20029;-68
2023/01/15 14:10:30;;;;;;;4.93;1.35;;;15.80;99.90;;;;;;5047402;28;20040;-68
2023/01/15 14:13:22;;;;;;;6.38;1.40;;;15.80;99.90;;;;;;5038430;28;20055;-69
2023/01/15 14:16:09;;;;;;;5.78;1.42;;;15.80;99.90;;;;;;5049240;28;20286;-68
2023/01/15 14:19:09;;;;;;;7.13;2.13;;;15.80;99.90;;;;;;5048121;28;20110;-68
2023/01/15 14:22:13;;;;;;;5.97;1.50;;;15.80;99.90;;;;;;5069405;28;20040;-68
2023/01/15 14:24:53;;;;;;;6.57;1.48;;;15.80;99.90;;;;;;5049651;28;20029;-67
2023/01/15 14:27:57;;;;;;;6.95;2.10;;;15.90;99.90;;;;;;5057871;28;20243;-67
2023/01/15 14:31:07;;;;;;;6.90;1.42;;;15.90;99.90;;;;;;5038717;28;20108;-67
2023/01/15 14:33:53;;;;;;;5.18;1.30;;;16.00;99.90;;;;;;5035583;28;20063;-66
2023/01/15 14:36:29;;;;;;;5.00;1.48;;;16.00;99.90;;;;;;5037286;28;20030;-70
2023/01/15 14:38:59;;;;;;;7.25;3.30;;;16.00;99.90;;;;;;5055309;28;20374;-68
2023/01/15 14:41:27;;;;;;;7.43;2.70;;;16.00;99.90;;;;;;5073099;28;20025;-67
2023/01/15 14:43:54;;;;;;;8.27;1.95;;;16.10;99.90;;;;;;5056525;28;20324;-65
2023/01/15 14:46:33;;;;;;;6.25;1.77;;;16.20;99.90;;;;;;5046785;28;20425;-65
2023/01/15 14:48:59;;;;;;;7.22;1.55;;;16.20;99.90;;;;;;5048774;28;20041;-67
2023/01/15 14:51:29;;;;;;;7.93;1.75;;;16.30;99.90;;;;;;5053985;28;20502;-66
2023/01/15 14:54:02;;;;;;;6.38;1.60;;;16.30;99.90;;;;;;5054200;28;20082;-66
2023/01/15 14:56:35;;;;;;;4.32;1.40;;;16.30;99.90;;;;;;5057172;28;20029;-66
2023/01/15 14:59:15;;;;;;;4.22;1.73;;;16.40;99.90;;;;;;5053102;28;20041;-68
2023/01/15 15:01:48;;;;;;;9.35;1.65;;;16.40;99.90;;;;;;5042982;28;20037;-74
2023/01/15 15:04:22;;;;;;;5.55;1.30;;;16.40;99.90;;;;;;5047878;28;20025;-70
2023/01/15 15:07:01;;;;;;;5.30;1.50;;;16.40;99.90;;;;;;5049430;28;20033;-71
2023/01/15 15:09:41;;;;;;;4.97;1.60;;;16.50;99.90;;;;;;5048869;28;20033;-74
2023/01/15 15:12:24;;;;;;;5.07;1.83;;;16.50;99.90;;;;;;5050119;28;20036;-74
2023/01/15 15:15:06;;;;;;;5.35;1.40;;;16.50;99.90;;;;;;5053050;28;20040;-70
2023/01/15 15:17:51;;;;;;;5.68;1.58;;;16.50;99.90;;;;;;5054968;28;20043;-75
2023/01/15 15:20:51;;;;;;;4.00;1.40;;;16.60;99.90;;;;;;5052508;28;20035;-81
2023/01/15 15:23:35;;;;;;;7.45;1.85;;;16.60;99.90;;;;;;5050507;28;20025;-79
2023/01/15 15:26:05;;;;;;;4.75;1.50;;;16.60;99.90;;;;;;5056976;28;20021;-75
2023/01/15 15:28:31;;;;;;;3.65;1.10;;;16.60;99.90;;;;;;5055258;28;20032;-69
2023/01/15 15:31:00;;;;;;;5.78;1.40;;;16.60;99.90;;;;;;5051902;28;20344;-72
2023/01/15 15:33:36;;;;;;;3.80;1.17;;;16.70;99.90;;;;;;5049705;28;20068;-79
2023/01/15 15:36:02;;;;;;;5.32;1.40;;;16.70;99.90;;;;;;5055010;28;20028;-77
2023/01/15 15:38:28;;;;;;;7.60;1.40;;;16.70;99.90;;;;;;5056151;28;20428;-72
2023/01/15 15:40:58;;;;;;;3.92;1.40;;;16.70;99.90;;;;;;5056655;28;20067;-72
2023/01/15 15:49:18;;;;;;;6.82;1.80;;;16.70;99.90;;;;;;5048974;28;20058;-69
2023/01/15 15:51:48;;;;;;;7.43;1.67;;;16.70;99.90;;;;;;5036554;28;20383;-71
2023/01/15 15:54:25;;;;;;;3.72;1.20;;;16.70;99.90;;;;;;5036576;28;20033;-71
2023/01/15 15:57:05;;;;;;;6.05;1.50;;;16.70;99.90;;;;;;5036651;28;20495;-70
2023/01/15 15:59:37;;;;;;;7.10;1.63;;;16.70;99.90;;;;;;5049128;28;20049;-70
2023/01/15 16:02:27;;;;;;;4.80;1.40;;;16.70;99.90;;;;;;5056455;28;20313;-70
2023/01/15 16:04:55;;;;;;;5.40;1.45;;;16.70;99.90;;;;;;5055736;28;20069;-71
2023/01/15 16:07:36;;;;;;;7.82;1.30;;;16.70;99.90;;;;;;5055580;28;20108;-70
2023/01/15 16:10:13;;;;;;;7.38;1.65;;;16.70;99.90;;;;;;5055968;28;20060;-69
2023/01/15 16:12:44;;;;;;;6.57;1.52;;;16.70;99.90;;;;;;5055823;28;20052;-68
2023/01/15 16:15:36;;;;;;;8.88;1.48;;;16.70;99.90;;;;;;5056029;28;20029;-71
2023/01/15 16:18:04;;;;;;;6.00;1.50;;;16.70;99.90;;;;;;5051948;28;20041;-71
2023/01/15 16:20:31;;;;;;;5.80;1.73;;;16.70;99.90;;;;;;5055357;28;20029;-71
2023/01/15 16:22:59;;;;;;;7.00;1.33;;;16.80;99.90;;;;;;5055465;28;20025;-70
2023/01/15 16:25:48;;;;;;;6.88;1.40;;;16.80;99.90;;;;;;5054571;28;20082;-68
2023/01/15 16:28:27;;;;;;;6.68;1.38;;;16.80;99.90;;;;;;5055640;28;20029;-69
2023/01/15 16:31:01;;;;;;;5.80;1.40;;;16.90;99.90;;;;;;5055701;28;20029;-71
2023/01/15 16:33:28;;;;;;;5.82;1.90;;;16.90;99.90;;;;;;5050285;28;20026;-71
2023/01/15 16:35:58;;;;;;;5.70;1.50;;;16.90;99.90;;;;;;5040215;28;20032;-70
2023/01/15 16:38:25;;;;;;;9.52;1.63;;;16.90;99.90;;;;;;5034483;28;20037;-70
2023/01/15 16:40:52;;;;;;;6.57;1.30;;;17.00;99.90;;;;;;5044500;28;20025;-71
2023/01/15 16:43:22;;;;;;;6.15;1.40;;;17.00;99.90;;;;;;5048305;28;20125;-70
2023/01/15 16:46:02;;;;;;;5.82;1.55;;;17.00;99.90;;;;;;5054247;28;20017;-71
2023/01/15 16:48:38;;;;;;;4.03;1.25;;;17.00;99.90;;;;;;5054918;28;20071;-71
2023/01/15 16:51:30;;;;;;;5.93;1.50;;;16.90;99.90;;;;;;5054734;28;20144;-71
2023/01/15 16:54:02;;;;;;;7.28;1.52;;;16.90;99.90;;;;;;5047624;28;20028;-71
2023/01/15 16:56:35;;;;;;;8.90;2.33;;;16.90;99.90;;;;;;5055390;28;20327;-71
2023/01/15 16:59:01;;;;;;;7.03;1.73;;;16.90;99.90;;;;;;5055211;28;20080;-71
2023/01/15 17:01:40;;;;;;;8.23;1.95;;;16.90;99.90;;;;;;5054609;28;20100;-71
2023/01/15 17:04:32;;;;;;;10.20;1.80;;;16.90;99.90;;;;;;5054270;28;20035;-71
2023/01/15 17:07:16;;;;;;;5.05;1.65;;;16.90;99.90;;;;;;5055109;28;20043;-70
2023/01/15 17:09:49;;;;;;;7.07;1.73;;;16.90;99.90;;;;;;5050085;28;20031;-71
2023/01/15 17:12:42;;;;;;;6.97;1.88;;;16.90;99.90;;;;;;5046820;28;20116;-70
2023/01/15 17:15:17;;;;;;;7.50;1.90;;;16.90;99.90;;;;;;5052338;28;20111;-70
2023/01/15 17:17:51;;;;;;;10.70;2.22;;;16.90;99.90;;;;;;5054054;28;20502;-71
2023/01/15 17:20:19;;;;;;;5.28;1.75;;;16.90;99.90;;;;;;5043446;28;20036;-77
2023/01/15 17:22:47;;;;;;;7.18;2.35;;;16.90;99.90;;;;;;5054370;28;20028;-71
2023/01/15 17:25:26;;;;;;;10.60;3.85;;;16.90;99.90;;;;;;5050176;28;20424;-72
2023/01/15 17:27:54;;;;;;;15.65;2.97;;;17.00;99.90;;;;;;5035224;28;20064;-70
2023/01/15 17:30:21;;;;;;;9.38;2.38;;;17.10;99.90;;;;;;5035101;28;20408;-69
2023/01/15 17:32:47;;;;;;;8.73;2.28;;;17.10;99.90;;;;;;5054517;28;20041;-68
2023/01/15 17:35:26;;;;;;;6.25;2.10;;;17.20;99.90;;;;;;5047733;28;20411;-66
2023/01/15 17:37:52;;;;;;;7.15;1.77;;;17.20;99.90;;;;;;5034655;28;20435;-67
2023/01/15 17:40:19;;;;;;;7.75;2.42;;;17.30;99.90;;;;;;5034885;28;20032;-66
2023/01/15 17:42:46;;;;;;;8.25;2.08;;;17.30;99.90;;;;;;5036300;28;20113;-67
2023/01/15 17:45:22;;;;;;;11.20;2.28;;;17.40;99.90;;;;;;5055455;28;20089;-67
2023/01/15 17:47:51;;;;;;;8.38;2.45;;;17.40;99.90;;;;;;5058663;28;20041;-66
2023/01/15 17:50:17;;;;;;;11.77;2.08;;;17.50;99.90;;;;;;5058187;28;20052;-66
2023/01/15 17:52:43;;;;;;;9.43;2.13;;;17.50;99.90;;;;;;5058040;28;20056;-65
2023/01/15 18:06:20;;;;;;;7.45;1.95;;;17.60;99.90;;;;;;5038226;28;20033;-72
2023/01/15 18:08:51;;;;;;;8.80;2.28;;;17.60;99.90;;;;;;5041548;28;20078;-67
2023/01/15 18:11:17;;;;;;;6.85;2.10;;;17.60;99.90;;;;;;5058446;28;20086;-67
2023/01/15 18:13:43;;;;;;;10.50;2.33;;;17.60;99.90;;;;;;5051276;28;20119;-69
2023/01/15 18:16:09;;;;;;;7.63;2.03;;;17.60;99.90;;;;;;5045521;28;20022;-68
2023/01/15 18:18:35;;;;;;;7.75;2.17;;;17.60;99.90;;;;;;5045077;28;20037;-68
2023/01/15 18:21:02;;;;;;;6.93;2.20;;;17.60;99.90;;;;;;5052928;28;20028;-68
2023/01/15 18:23:29;;;;;;;5.78;1.90;;;17.60;99.90;;;;;;5047438;28;20108;-68
2023/01/15 18:25:55;;;;;;;5.82;1.52;;;17.60;99.90;;;;;;5048977;28;20087;-69
2023/01/15 18:28:21;;;;;;;5.97;2.17;;;17.60;99.90;;;;;;5057547;28;20108;-68
2023/01/15 18:30:47;;;;;;;8.15;2.20;;;17.60;99.90;;;;;;5057595;28;20052;-68
2023/01/15 18:33:13;;;;;;;5.10;1.60;;;17.60;99.90;;;;;;5057591;28;20036;-68
2023/01/15 18:35:39;;;;;;;8.52;1.88;;;17.60;99.90;;;;;;5057322;28;20332;-67
2023/01/15 18:38:05;;;;;;;6.88;1.77;;;17.60;99.90;;;;;;5057370;28;20029;-67
2023/01/15 18:40:34;;;;;;;7.05;2.00;;;17.70;99.90;;;;;;5057587;28;20033;-68
2023/01/15 18:48:29;;;;;;;10.48;2.38;;;17.80;99.90;;;;;;5056402;28;20036;-70
2023/01/15 18:50:57;;;;;;;6.40;1.90;;;17.90;99.90;;;;;;5049944;28;20037;-68
2023/01/15 18:53:23;;;;;;;6.82;2.08;;;17.90;99.90;;;;;;5042217;28;20033;-67
2023/01/15 18:55:49;;;;;;;6.50;2.15;;;18.00;99.90;;;;;;5051903;28;20068;-69
2023/01/15 18:58:16;;;;;;;6.45;2.03;;;18.00;99.90;;;;;;5046658;28;20068;-70
2023/01/15 19:00:41;;;;;;;8.38;1.70;;;18.00;99.90;;;;;;5037402;28;20375;-72
2023/01/15 19:03:07;;;;;;;6.85;1.83;;;18.00;99.90;;;;;;5042427;28;20025;-69
2023/01/15 19:05:33;;;;;;;5.35;1.80;;;18.00;99.90;;;;;;5055322;28;20025;-69
2023/01/15 19:07:59;;;;;;;10.85;2.05;;;18.10;99.90;;;;;;5056791;28;20017;-70
2023/01/15 19:10:27;;;;;;;7.50;2.05;;;18.00;99.90;;;;;;5057211;28;20051;-69
2023/01/15 19:12:53;;;;;;;7.13;1.77;;;18.00;99.90;;;;;;5056970;28;20399;-68
2023/01/15 19:20:49;;;;;;;4.57;1.50;;;18.00;99.90;;;;;;5054287;28;20033;-68
2023/01/15 19:23:15;;;;;;;8.98;1.77;;;18.00;99.90;;;;;;5057078;28;20040;-70
2023/01/15 19:25:43;;;;;;;11.70;2.20;;;18.00;99.90;;;;;;5055807;28;20336;-70
2023/01/15 19:28:14;;;;;;;9.93;2.03;;;18.00;99.90;;;;;;5056961;28;20037;-69
2023/01/15 19:30:40;;;;;;;6.65;1.83;;;18.00;99.90;;;;;;5056458;28;20061;-68
2023/01/15 19:33:08;;;;;;;7.70;2.00;;;18.00;99.90;;;;;;5056268;28;20032;-71
2023/01/15 19:35:35;;;;;;;9.50;2.13;;;18.00;99.90;;;;;;5055146;28;20036;-73
2023/01/15 19:38:01;;;;;;;9.73;2.28;;;18.00;99.90;;;;;;5056507;28;20040;-72
2023/01/15 19:40:29;;;;;;;6.60;2.20;;;18.10;99.90;;;;;;5044762;28;20037;-78
2023/01/15 19:51:12;;;;;;;8.48;2.00;;;18.00;99.90;;;;;;5048652;28;20104;-72
2023/01/15 19:53:39;;;;;;;6.95;1.90;;;18.00;99.90;;;;;;5056017;28;20024;-74
2023/01/15 19:56:08;;;;;;;7.60;2.05;;;18.00;99.90;;;;;;5043808;28;20036;-71
2023/01/15 19:58:35;;;;;;;7.55;2.00;;;18.00;99.90;;;;;;5055268;28;20049;-75
2023/01/15 20:01:02;;;;;;;6.75;1.95;;;18.00;99.90;;;;;;5055747;28;20051;-69
2023/01/15 20:03:29;;;;;;;5.57;1.80;;;18.00;99.90;;;;;;5045846;28;20035;-71
2023/01/15 20:05:55;;;;;;;6.57;1.77;;;18.00;99.90;;;;;;5050727;28;20100;-73
2023/01/15 20:08:21;;;;;;;7.22;2.22;;;18.00;99.90;;;;;;5049743;28;20057;-75
2023/01/15 20:10:49;;;;;;;6.40;2.00;;;18.00;99.90;;;;;;5050794;28;20108;-73
2023/01/15 20:16:10;;;;;;;5.78;1.85;;;18.00;99.90;;;;;;5048835;28;20422;-71
2023/01/15 20:18:38;;;;;;;8.70;1.98;;;18.00;99.90;;;;;;5052446;28;20038;-73
2023/01/15 20:21:04;;;;;;;5.00;1.75;;;18.00;99.90;;;;;;5053042;28;20029;-73
2023/01/15 20:23:30;;;;;;;6.82;2.05;;;18.00;99.90;;;;;;5054134;28;20439;-75
2023/01/15 20:26:09;;;;;;;5.50;2.00;;;18.00;99.90;;;;;;5055152;28;20399;-74
2023/01/15 20:28:36;;;;;;;6.40;1.70;;;18.00;99.90;;;;;;5055722;28;20104;-75
2023/01/15 20:31:03;;;;;;;6.28;2.30;;;17.90;99.90;;;;;;5055303;28;20024;-73
2023/01/15 20:33:29;;;;;;;7.30;1.80;;;17.90;99.90;;;;;;5047899;28;20037;-74
2023/01/15 20:35:55;;;;;;;8.88;2.35;;;17.90;99.90;;;;;;5050778;28;20033;-74
2023/01/15 20:38:22;;;;;;;5.57;1.95;;;17.90;99.90;;;;;;5053869;28;20099;-75
2023/01/15 20:40:50;;;;;;;5.85;2.28;;;17.90;99.90;;;;;;5055179;28;20029;-73
2023/01/15 20:46:07;;;;;;;5.40;1.83;;;17.80;99.90;;;;;;5048350;28;20104;-74
2023/01/15 20:51:18;;;;;;;5.72;2.08;;;17.70;99.90;;;;;;5052128;28;20041;-74
2023/01/15 20:53:44;;;;;;;4.85;1.88;;;17.70;99.90;;;;;;5051412;28;20036;-70
2023/01/15 20:56:13;;;;;;;4.90;1.60;;;17.70;99.90;;;;;;5050555;28;20032;-68
2023/01/15 20:58:39;;;;;;;7.63;2.53;;;17.60;99.90;;;;;;5043073;28;20065;-71
2023/01/15 21:01:08;;;;;;;8.02;2.03;;;17.60;99.90;;;;;;5048967;28;20044;-72
2023/01/15 21:03:35;;;;;;;16.23;2.28;;;17.60;99.90;;;;;;5053380;28;20033;-74
2023/01/15 21:06:02;;;;;;;14.00;2.42;;;17.60;99.90;;;;;;5051719;28;20315;-71
2023/01/15 21:08:28;;;;;;;11.75;2.50;;;17.50;99.90;;;;;;5053334;28;20035;-73
2023/01/15 21:10:54;;;;;;;15.75;2.50;;;17.50;99.90;;;;;;5053381;28;20116;-73
2023/01/15 21:13:21;;;;;;;10.88;2.20;;;17.50;99.90;;;;;;5052829;28;20392;-73
2023/01/15 21:15:59;;;;;;;13.45;2.40;;;17.50;99.90;;;;;;5047661;28;20036;-73
2023/01/15 21:18:26;;;;;;;15.60;2.50;;;17.50;99.90;;;;;;5037985;28;20091;-73
2023/01/15 21:20:52;;;;;;;12.20;2.08;;;17.40;99.90;;;;;;5053956;28;20424;-73
2023/01/15 21:23:18;;;;;;;8.75;1.77;;;17.40;99.90;;;;;;5052495;28;20377;-73
2023/01/15 21:25:44;;;;;;;8.77;1.67;;;17.40;99.90;;;;;;5047126;28;20040;-71
2023/01/15 21:28:10;;;;;;;6.00;1.65;;;17.40;99.90;;;;;;5044602;28;20033;-74
2023/01/15 21:30:39;;;;;;;5.85;1.80;;;17.40;99.90;;;;;;5044464;28;20080;-74
2023/01/15 21:33:05;;;;;;;6.53;1.92;;;17.30;99.90;;;;;;5038392;28;20342;-72
2023/01/15 21:35:31;;;;;;;5.55;1.77;;;17.30;99.90;;;;;;5039878;28;20037;-74
2023/01/15 21:37:56;;;;;;;7.60;1.48;;;17.30;99.90;;;;;;5047560;28;20033;-73
2023/01/15 21:40:22;;;;;;;6.32;1.63;;;17.20;99.90;;;;;;5041522;28;20329;-74
2023/01/15 21:45:33;;;;;;;4.60;1.52;;;17.20;99.90;;;;;;5058791;28;20112;-74
2023/01/15 21:47:59;;;;;;;6.22;1.55;;;17.20;99.90;;;;;;5058096;28;20420;-73
2023/01/15 21:50:25;;;;;;;12.13;1.70;;;17.20;99.90;;;;;;5057913;28;20158;-74
2023/01/15 21:52:51;;;;;;;6.13;1.60;;;17.20;99.90;;;;;;5058043;28;20406;-73
2023/01/15 21:55:17;;;;;;;8.20;1.52;;;17.10;99.90;;;;;;5058419;28;20029;-73
2023/01/15 21:57:43;;;;;;;4.78;1.60;;;17.10;99.90;;;;;;5050953;28;20132;-74
2023/01/15 22:00:10;;;;;;;5.82;1.67;;;17.10;99.90;;;;;;5050026;28;20082;-73
2023/01/15 22:02:37;;;;;;;5.25;1.65;;;17.10;99.90;;;;;;5046644;28;20345;-74
2023/01/15 22:05:04;;;;;;;6.03;1.45;;;17.10;99.90;;;;;;5049799;28;20455;-72
2023/01/15 22:07:29;;;;;;;3.72;1.15;;;17.00;99.90;;;;;;5043067;28;20067;-73
2023/01/15 22:09:55;;;;;;;5.90;1.40;;;17.00;99.90;;;;;;5053043;28;20103;-74
2023/01/15 22:12:21;;;;;;;7.15;1.40;;;17.00;99.90;;;;;;5054499;28;20033;-73
2023/01/15 22:14:48;;;;;;;4.63;1.70;;;17.00;99.90;;;;;;5048898;28;20207;-73
2023/01/15 22:17:14;;;;;;;5.25;1.30;;;17.00;99.90;;;;;;5038167;28;20037;-73
2023/01/15 22:19:40;;;;;;;9.10;1.80;;;17.00;99.90;;;;;;5047262;28;20025;-73
2023/01/15 22:22:10;;;;;;;10.35;2.03;;;17.00;99.90;;;;;;5057296;28;20029;-76
2023/01/15 22:24:37;;;;;;;5.43;1.40;;;17.00;99.90;;;;;;5056943;28;20022;-74
2023/01/15 22:27:05;;;;;;;6.70;1.60;;;16.90;99.90;;;;;;5057743;28;20336;-72
2023/01/15 22:29:35;;;;;;;4.18;1.20;;;16.90;99.90;;;;;;5057550;28;20098;-73
2023/01/15 22:32:01;;;;;;;5.85;1.10;;;16.90;99.90;;;;;;5057164;28;20036;-72
2023/01/15 22:34:27;;;;;;;3.45;1.20;;;16.90;99.90;;;;;;5054904;28;20080;-72
2023/01/15 22:36:53;;;;;;;3.90;1.23;;;16.90;99.90;;;;;;5046049;28;20060;-72
2023/01/15 22:39:21;;;;;;;5.65;1.33;;;16.90;99.90;;;;;;5045537;28;20116;-73
2023/01/15 22:44:32;;;;;;;3.72;1.30;;;16.80;99.90;;;;;;5057545;28;20029;-74
2023/01/15 22:46:58;;;;;;;3.35;1.30;;;16.80;99.90;;;;;;5057434;28;20155;-75
2023/01/15 22:49:24;;;;;;;3.45;1.30;;;16.80;99.90;;;;;;5056461;28;20033;-74
2023/01/15 22:51:50;;;;;;;3.40;1.27;;;16.80;99.90;;;;;;5056821;28;20025;-74
2023/01/15 22:54:17;;;;;;;4.18;1.10;;;16.80;99.90;;;;;;5057093;28;20037;-73
2023/01/15 22:56:42;;;;;;;4.25;1.35;;;16.70;99.90;;;;;;5056262;28;20113;-73
2023/01/15 22:59:10;;;;;;;2.58;1.27;;;16.70;99.90;;;;;;5055448;28;20127;-73
2023/01/15 23:01:36;;;;;;;3.47;1.23;;;16.70;99.90;;;;;;5057039;28;20079;-74
2023/01/15 23:04:02;;;;;;;2.53;1.00;;;16.70;99.90;;;;;;5056101;28;20115;-72
2023/01/15 23:06:28;;;;;;;4.03;1.15;;;16.70;99.90;;;;;;5056921;28;20104;-74
2023/01/15 23:08:59;;;;;;;3.13;1.10;;;16.70;99.90;;;;;;5056515;28;20033;-71
2023/01/15 23:11:26;;;;;;;4.15;1.20;;;16.70;99.90;;;;;;5057147;28;20043;-73
2023/01/15 23:13:52;;;;;;;2.88;1.17;;;16.70;99.90;;;;;;5056922;28;20025;-73
2023/01/15 23:16:20;;;;;;;3.03;1.10;;;16.70;99.90;;;;;;5056877;28;20040;-73
2023/01/15 23:18:47;;;;;;;4.40;1.15;;;16.70;99.90;;;;;;5056437;28;20045;-70
2023/01/15 23:21:15;;;;;;;2.38;1.00;;;16.70;99.90;;;;;;5055793;28;20033;-73
2023/01/15 23:23:42;;;;;;;3.67;1.20;;;16.70;99.90;;;;;;5056840;28;20036;-73
2023/01/15 23:26:15;;;;;;;3.72;1.35;;;16.60;99.90;;;;;;5056212;28;20044;-73
2023/01/15 23:28:42;;;;;;;4.22;1.20;;;16.60;99.90;;;;;;5056882;28;20067;-75
2023/01/15 23:31:09;;;;;;;2.53;1.10;;;16.60;99.90;;;;;;5056367;28;20036;-75
2023/01/15 23:33:35;;;;;;;2.10;0.90;;;16.60;99.90;;;;;;5056274;28;20116;-75
2023/01/15 23:36:02;;;;;;;4.57;1.40;;;16.60;99.90;;;;;;5054209;28;20447;-74
2023/01/15 23:38:28;;;;;;;3.35;1.10;;;16.60;99.90;;;;;;5056457;28;20441;-74
2023/01/15 23:40:55;;;;;;;3.92;1.20;;;16.60;99.90;;;;;;5056555;28;20103;-74
2023/01/15 23:48:54;;;;;;;4.53;1.10;;;16.50;99.90;;;;;;5035614;28;20033;-74
2023/01/15 23:51:20;;;;;;;2.22;1.08;;;16.50;99.90;;;;;;5047072;28;20025;-76
2023/01/15 23:53:46;;;;;;;2.50;1.10;;;16.50;99.90;;;;;;5036308;28;20048;-72
2023/01/15 23:56:12;;;;;;;4.28;1.00;;;16.50;99.90;;;;;;5054943;28;20116;-74
2023/01/15 23:58:38;;;;;;;2.17;0.82;;;16.50;99.90;;;;;;5055930;28;20052;-73
